createdAt,value
2023-09-17T00:00:22.689Z,64.54
2023-09-17T00:02:49.445Z,64.58
2023-09-17T00:05:17.403Z,61.26
2023-09-17T00:07:44.512Z,73.20
2023-09-17T00:10:12.430Z,71.69
2023-09-17T00:12:40.920Z,66.49
2023-09-17T00:15:08.551Z,65.38
2023-09-17T00:17:35.382Z,65.01
2023-09-17T00:20:02.023Z,64.90
2023-09-17T00:22:28.662Z,64.85
2023-09-17T00:24:55.412Z,65.01
2023-09-17T00:27:22.031Z,64.84
2023-09-17T00:29:49.968Z,65.14
2023-09-17T00:32:16.574Z,59.74
2023-09-17T00:34:43.299Z,65.41
2023-09-17T00:37:12.648Z,65.01
2023-09-17T00:39:41.100Z,59.84
2023-09-17T00:42:07.801Z,65.41
2023-09-17T00:44:34.420Z,64.93
2023-09-17T00:47:04.466Z,64.54
2023-09-17T00:49:31.739Z,64.56
2023-09-17T00:51:58.704Z,66.40
2023-09-17T00:54:27.426Z,65.13
2023-09-17T00:56:54.249Z,65.02
2023-09-17T00:59:21.333Z,64.86
2023-09-17T01:01:48.155Z,64.72
2023-09-17T01:04:18.959Z,64.52
2023-09-17T01:06:47.579Z,65.15
2023-09-17T01:09:14.765Z,64.73
2023-09-17T01:11:42.529Z,64.26
2023-09-17T01:14:16.721Z,64.78
2023-09-17T01:16:48.497Z,64.71
2023-09-17T01:19:19.929Z,64.59
2023-09-17T01:21:52.561Z,64.39
2023-09-17T01:24:26.987Z,65.00
2023-09-17T01:27:03.871Z,64.77
2023-09-17T01:29:35.280Z,64.39
2023-09-17T01:32:02.010Z,64.67
2023-09-17T01:34:31.486Z,64.75
2023-09-17T01:37:01.844Z,64.47
2023-09-17T01:39:34.616Z,64.70
2023-09-17T01:42:05.300Z,64.23
2023-09-17T01:44:32.588Z,64.71
2023-09-17T01:47:01.450Z,61.66
2023-09-17T01:49:29.644Z,64.51
2023-09-17T01:51:57.400Z,64.38
2023-09-17T01:54:24.673Z,69.92
2023-09-17T01:56:51.328Z,65.85
2023-09-17T01:59:19.280Z,64.58
2023-09-17T02:01:45.991Z,63.58
2023-09-17T02:04:13.127Z,61.31
2023-09-17T02:06:39.830Z,66.12
2023-09-17T02:09:06.932Z,65.00
2023-09-17T02:11:34.024Z,64.98
2023-09-17T02:14:00.731Z,65.08
2023-09-17T02:16:29.505Z,64.84
2023-09-17T02:18:56.137Z,65.19
2023-09-17T02:21:24.103Z,64.98
2023-09-17T02:23:50.878Z,64.80
2023-09-17T02:26:17.670Z,64.97
2023-09-17T02:28:44.482Z,65.01
2023-09-17T02:31:11.191Z,65.05
2023-09-17T02:33:39.164Z,64.18
2023-09-17T02:36:07.173Z,70.67
2023-09-17T02:38:33.801Z,66.08
2023-09-17T02:41:00.796Z,64.95
2023-09-17T02:43:30.365Z,64.61
2023-09-17T02:45:57.840Z,64.47
2023-09-17T02:48:24.547Z,62.23
2023-09-17T02:50:52.519Z,65.60
2023-09-17T02:53:21.175Z,64.61
2023-09-17T02:55:48.367Z,64.54
2023-09-17T02:58:16.285Z,64.85
2023-09-17T03:00:44.473Z,64.55
2023-09-17T03:03:12.057Z,64.34
2023-09-17T03:05:39.357Z,64.25
2023-09-17T03:08:10.321Z,64.64
2023-09-17T03:10:43.805Z,64.84
2023-09-17T03:13:15.836Z,65.05
2023-09-17T03:15:43.147Z,64.70
2023-09-17T03:18:09.894Z,64.79
2023-09-17T03:20:36.575Z,64.32
2023-09-17T03:23:05.586Z,64.72
2023-09-17T03:25:33.696Z,65.03
2023-09-17T03:28:00.719Z,64.82
2023-09-17T03:30:27.562Z,64.41
2023-09-17T03:33:04.406Z,64.65
2023-09-17T03:35:31.933Z,65.27
2023-09-17T03:37:58.556Z,64.85
2023-09-17T03:40:25.667Z,64.75
2023-09-17T03:42:53.776Z,64.90
2023-09-17T03:45:20.846Z,64.53
2023-09-17T03:47:48.724Z,64.67
2023-09-17T03:50:19.740Z,64.61
2023-09-17T03:52:50.312Z,64.43
2023-09-17T03:55:17.484Z,64.34
2023-09-17T03:57:44.321Z,58.41
2023-09-17T04:00:14.357Z,72.46
2023-09-17T04:02:43.049Z,67.97
2023-09-17T04:05:11.885Z,65.90
2023-09-17T04:07:39.976Z,64.98
2023-09-17T04:10:07.873Z,65.35
2023-09-17T04:12:35.791Z,63.58
2023-09-17T04:15:03.838Z,64.71
2023-09-17T04:17:31.851Z,64.38
2023-09-17T04:19:58.803Z,64.87
2023-09-17T04:22:25.426Z,65.02
2023-09-17T04:24:52.091Z,64.97
2023-09-17T04:27:18.759Z,64.81
2023-09-17T04:29:45.421Z,64.71
2023-09-17T04:32:13.471Z,64.43
2023-09-17T04:34:41.567Z,64.47
2023-09-17T04:37:08.765Z,64.72
2023-09-17T04:39:35.383Z,64.85
2023-09-17T04:42:02.043Z,64.99
2023-09-17T04:44:29.521Z,63.53
2023-09-17T04:46:56.178Z,65.27
2023-09-17T04:49:22.869Z,63.76
2023-09-17T04:51:51.135Z,62.70
2023-09-17T04:54:19.634Z,62.20
2023-09-17T04:56:46.262Z,68.34
2023-09-17T04:59:12.984Z,65.68
2023-09-17T05:01:39.733Z,65.33
2023-09-17T05:04:09.700Z,64.90
2023-09-17T05:06:36.453Z,64.96
2023-09-17T05:09:04.458Z,64.86
2023-09-17T05:11:31.154Z,64.85
2023-09-17T05:13:57.930Z,64.99
2023-09-17T05:16:24.648Z,64.94
2023-09-17T05:18:51.375Z,67.09
2023-09-17T05:21:20.345Z,65.23
2023-09-17T05:23:46.966Z,64.93
2023-09-17T05:26:14.996Z,64.72
2023-09-17T05:28:41.629Z,64.45
2023-09-17T05:31:08.396Z,65.60
2023-09-17T05:33:35.046Z,64.81
2023-09-17T05:36:01.816Z,64.53
2023-09-17T05:38:28.522Z,68.64
2023-09-17T05:40:55.169Z,65.25
2023-09-17T05:43:24.141Z,64.76
2023-09-17T05:45:57.263Z,64.83
2023-09-17T05:48:24.057Z,64.28
2023-09-17T05:50:51.281Z,64.48
2023-09-17T05:53:17.910Z,64.82
2023-09-17T05:55:44.646Z,65.19
2023-09-17T05:58:11.333Z,64.95
2023-09-17T06:00:39.441Z,64.79
2023-09-17T06:03:06.274Z,64.32
2023-09-17T06:05:33.078Z,64.63
2023-09-17T06:07:59.785Z,64.92
2023-09-17T06:10:27.558Z,64.74
2023-09-17T06:12:54.506Z,64.49
2023-09-17T06:15:21.151Z,64.54
2023-09-17T06:17:49.552Z,73.73
2023-09-17T06:20:16.347Z,77.62
2023-09-17T06:22:43.656Z,75.86
2023-09-17T06:25:10.276Z,75.86
2023-09-17T06:27:36.876Z,73.96
2023-09-17T06:30:04.102Z,68.04
2023-09-17T06:32:31.100Z,67.26
2023-09-17T06:34:59.241Z,66.71
2023-09-17T06:37:25.973Z,66.38
2023-09-17T06:39:52.782Z,66.37
2023-09-17T06:42:19.395Z,66.28
2023-09-17T06:44:46.549Z,66.06
2023-09-17T06:47:14.335Z,72.43
2023-09-17T06:49:41.079Z,70.73
2023-09-17T06:52:09.189Z,68.95
2023-09-17T06:54:36.311Z,66.16
2023-09-17T06:57:03.245Z,65.10
2023-09-17T06:59:29.976Z,63.52
2023-09-17T07:01:56.641Z,65.92
2023-09-17T07:04:23.409Z,65.43
2023-09-17T07:06:50.044Z,66.43
2023-09-17T07:09:18.906Z,64.89
2023-09-17T07:11:45.552Z,66.10
2023-09-17T07:14:12.192Z,61.92
2023-09-17T07:16:40.515Z,63.60
2023-09-17T07:19:07.348Z,64.18
2023-09-17T07:21:33.968Z,64.87
2023-09-17T07:24:00.614Z,63.09
2023-09-17T07:26:29.167Z,56.82
2023-09-17T07:28:55.951Z,60.13
2023-09-17T07:31:22.838Z,59.24
2023-09-17T07:33:49.945Z,66.61
2023-09-17T07:36:16.955Z,63.20
2023-09-17T07:38:43.598Z,60.99
2023-09-17T07:41:10.298Z,64.55
2023-09-17T07:43:38.436Z,63.97
2023-09-17T07:46:06.305Z,65.02
2023-09-17T07:48:32.967Z,65.22
2023-09-17T07:51:01.182Z,65.59
2023-09-17T07:53:28.450Z,70.12
2023-09-17T07:55:57.219Z,65.25
2023-09-17T07:58:24.321Z,70.71
2023-09-17T08:00:53.700Z,68.83
2023-09-17T08:03:20.337Z,67.12
2023-09-17T08:05:47.663Z,63.44
2023-09-17T08:08:15.624Z,64.02
2023-09-17T08:10:42.740Z,65.49
2023-09-17T08:13:10.071Z,65.81
2023-09-17T08:15:36.788Z,67.83
2023-09-17T08:18:05.324Z,65.88
2023-09-17T08:20:32.048Z,64.85
2023-09-17T08:22:59.015Z,70.35
2023-09-17T08:25:27.732Z,66.80
2023-09-17T08:27:54.842Z,64.52
2023-09-17T08:30:21.589Z,71.09
2023-09-17T08:32:48.542Z,64.34
2023-09-17T08:35:16.690Z,59.70
2023-09-17T08:37:43.815Z,62.05
2023-09-17T08:40:15.340Z,58.79
2023-09-17T08:42:43.179Z,56.61
2023-09-17T08:45:11.125Z,55.74
2023-09-17T08:47:38.780Z,57.69
2023-09-17T08:50:10.085Z,59.37
2023-09-17T08:52:44.430Z,57.61
2023-09-17T08:55:12.463Z,58.31
2023-09-17T08:57:43.161Z,56.72
2023-09-17T09:00:16.216Z,56.00
2023-09-17T09:02:47.371Z,56.68
2023-09-17T09:05:16.162Z,62.09
2023-09-17T09:07:45.500Z,55.72
2023-09-17T09:10:14.640Z,56.39
2023-09-17T09:12:43.152Z,50.56
2023-09-17T09:15:13.406Z,51.07
2023-09-17T09:17:40.617Z,53.92
2023-09-17T09:20:10.863Z,52.04
2023-09-17T09:22:38.605Z,49.00
2023-09-17T09:25:09.771Z,53.83
2023-09-17T09:27:37.924Z,54.00
2023-09-17T09:30:07.635Z,51.76
2023-09-17T09:32:34.385Z,51.96
2023-09-17T09:35:02.639Z,53.13
2023-09-17T09:37:30.055Z,49.66
2023-09-17T09:39:57.022Z,50.42
2023-09-17T09:42:27.062Z,53.96
2023-09-17T09:44:54.470Z,52.59
2023-09-17T09:47:23.767Z,50.69
2023-09-17T09:49:51.036Z,48.93
2023-09-17T09:52:18.260Z,51.33
2023-09-17T09:54:46.172Z,46.08
2023-09-17T09:57:13.442Z,45.79
2023-09-17T09:59:43.915Z,44.83
2023-09-17T10:02:12.897Z,43.70
2023-09-17T10:04:40.050Z,43.18
2023-09-17T10:07:08.708Z,44.27
2023-09-17T10:09:35.772Z,43.89
2023-09-17T10:12:02.834Z,44.82
2023-09-17T10:14:31.051Z,40.33
2023-09-17T10:17:02.171Z,45.21
2023-09-17T10:19:32.202Z,43.76
2023-09-17T10:22:00.365Z,41.46
2023-09-17T10:24:28.102Z,43.34
2023-09-17T10:26:56.134Z,44.14
2023-09-17T10:29:24.570Z,40.87
2023-09-17T10:31:51.867Z,43.89
2023-09-17T10:34:20.194Z,44.43
2023-09-17T10:36:48.623Z,52.58
2023-09-17T10:39:16.256Z,46.75
2023-09-17T10:41:45.964Z,47.20
2023-09-17T10:44:15.809Z,44.90
2023-09-17T10:46:46.377Z,45.48
2023-09-17T10:49:13.403Z,43.16
2023-09-17T10:51:42.176Z,43.23
2023-09-17T10:54:08.863Z,43.28
2023-09-17T10:56:36.046Z,40.41
2023-09-17T10:59:05.079Z,42.59
2023-09-17T11:01:35.625Z,43.39
2023-09-17T11:04:07.155Z,44.38
2023-09-17T11:06:35.917Z,55.05
2023-09-17T11:09:05.877Z,53.76
2023-09-17T11:11:35.887Z,51.91
2023-09-17T11:14:04.321Z,56.45
2023-09-17T11:16:33.450Z,58.95
2023-09-17T11:19:08.035Z,47.36
2023-09-17T11:21:36.202Z,46.07
2023-09-17T11:24:10.954Z,47.73
2023-09-17T11:26:39.694Z,46.38
2023-09-17T11:29:07.815Z,45.60
2023-09-17T11:31:36.136Z,43.68
2023-09-17T11:34:06.198Z,44.86
2023-09-17T11:36:33.171Z,45.30
2023-09-17T11:39:05.974Z,46.43
2023-09-17T11:41:37.686Z,46.42
2023-09-17T11:44:05.355Z,49.00
2023-09-17T11:46:32.400Z,47.69
2023-09-17T11:48:59.058Z,47.17
2023-09-17T11:51:27.467Z,55.26
2023-09-17T11:53:59.276Z,57.69
2023-09-17T11:56:29.727Z,52.28
2023-09-17T11:59:04.668Z,57.95
2023-09-17T12:01:35.251Z,55.82
2023-09-17T12:04:05.349Z,57.29
2023-09-17T12:06:32.267Z,51.54
2023-09-17T12:09:01.205Z,52.88
2023-09-17T12:11:29.189Z,51.26
2023-09-17T12:13:57.721Z,47.32
2023-09-17T12:16:26.080Z,48.42
2023-09-17T12:19:03.755Z,50.20
2023-09-17T12:21:41.984Z,47.87
2023-09-17T12:24:18.608Z,50.18
2023-09-17T12:27:10.113Z,50.98
2023-09-17T12:29:37.595Z,50.60
2023-09-17T12:32:05.100Z,49.32
2023-09-17T12:34:34.429Z,47.68
2023-09-17T12:37:01.077Z,47.48
2023-09-17T12:39:27.757Z,46.18
2023-09-17T12:41:55.763Z,48.44
2023-09-17T12:44:23.638Z,50.10
2023-09-17T12:46:50.320Z,46.67
2023-09-17T12:49:17.199Z,47.18
2023-09-17T12:51:44.609Z,52.35
2023-09-17T12:54:12.467Z,48.27
2023-09-17T12:56:39.432Z,47.76
2023-09-17T12:59:07.539Z,47.52
2023-09-17T13:01:34.459Z,50.88
2023-09-17T13:04:05.803Z,47.88
2023-09-17T13:06:35.975Z,47.44
2023-09-17T13:09:03.501Z,48.15
2023-09-17T13:11:30.736Z,51.58
2023-09-17T13:13:59.057Z,53.84
2023-09-17T13:16:27.137Z,49.99
2023-09-17T13:18:53.810Z,54.19
2023-09-17T13:21:21.465Z,48.24
2023-09-17T13:23:49.104Z,47.66
2023-09-17T13:26:15.980Z,50.79
2023-09-17T13:28:42.845Z,59.28
2023-09-17T13:31:09.768Z,60.84
2023-09-17T13:33:39.488Z,60.40
2023-09-17T13:36:08.928Z,49.24
2023-09-17T13:38:35.762Z,53.69
2023-09-17T13:41:04.169Z,58.92
2023-09-17T13:43:30.885Z,55.08
2023-09-17T13:46:02.975Z,57.69
2023-09-17T13:48:30.743Z,61.32
2023-09-17T13:50:58.738Z,62.21
2023-09-17T13:53:25.385Z,61.93
2023-09-17T13:55:52.081Z,61.73
2023-09-17T13:58:19.177Z,62.76
2023-09-17T14:00:45.836Z,63.31
2023-09-17T14:03:14.892Z,63.34
2023-09-17T14:05:41.589Z,63.38
2023-09-17T14:08:10.174Z,60.49
2023-09-17T14:10:37.031Z,60.75
2023-09-17T14:13:05.091Z,63.17
2023-09-17T14:15:34.059Z,62.63
2023-09-17T14:18:00.954Z,63.18
2023-09-17T14:20:27.842Z,62.96
2023-09-17T14:22:56.846Z,63.75
2023-09-17T14:25:24.952Z,63.82
2023-09-17T14:27:51.820Z,63.90
2023-09-17T14:30:22.679Z,64.19
2023-09-17T14:32:55.113Z,64.05
2023-09-17T14:35:22.528Z,64.03
2023-09-17T14:37:49.872Z,64.07
2023-09-17T14:40:19.210Z,64.23
2023-09-17T14:42:47.150Z,64.47
2023-09-17T14:45:13.770Z,64.74
2023-09-17T14:47:40.676Z,64.56
2023-09-17T14:50:14.911Z,64.88
2023-09-17T14:52:41.634Z,64.83
2023-09-17T14:55:09.163Z,65.09
2023-09-17T14:57:37.744Z,65.26
2023-09-17T15:00:07.626Z,64.78
2023-09-17T15:02:34.580Z,65.01
2023-09-17T15:05:01.699Z,65.07
2023-09-17T15:07:28.712Z,65.30
2023-09-17T15:09:55.438Z,65.27
2023-09-17T15:12:22.076Z,64.84
2023-09-17T15:14:48.876Z,64.75
2023-09-17T15:17:17.190Z,64.51
2023-09-17T15:19:43.992Z,64.67
2023-09-17T15:22:10.681Z,65.26
2023-09-17T15:24:38.475Z,65.65
2023-09-17T15:27:05.381Z,65.70
2023-09-17T15:29:32.728Z,65.73
2023-09-17T15:31:59.559Z,65.58
2023-09-17T15:34:28.730Z,65.91
2023-09-17T15:36:55.716Z,65.74
2023-09-17T15:39:22.335Z,66.04
2023-09-17T15:41:48.971Z,65.90
2023-09-17T15:44:16.583Z,65.89
2023-09-17T15:46:43.804Z,66.05
2023-09-17T15:49:10.770Z,66.24
2023-09-17T15:51:38.932Z,66.32
2023-09-17T15:54:05.798Z,65.96
2023-09-17T15:56:32.544Z,66.38
2023-09-17T15:58:59.291Z,66.35
2023-09-17T16:01:26.172Z,66.31
2023-09-17T16:03:53.044Z,66.55
2023-09-17T16:06:24.362Z,66.31
2023-09-17T16:08:54.112Z,66.43
2023-09-17T16:11:21.160Z,66.30
2023-09-17T16:13:47.951Z,66.41
2023-09-17T16:16:14.794Z,66.68
2023-09-17T16:18:41.692Z,66.86
2023-09-17T16:21:08.393Z,66.87
2023-09-17T16:23:35.598Z,66.60
2023-09-17T16:26:04.044Z,66.92
2023-09-17T16:28:30.703Z,66.95
2023-09-17T16:30:57.934Z,66.84
2023-09-17T16:33:24.959Z,66.83
2023-09-17T16:35:51.709Z,66.57
2023-09-17T16:38:20.259Z,66.59
2023-09-17T16:40:47.688Z,66.98
2023-09-17T16:43:16.400Z,67.04
2023-09-17T16:45:43.406Z,66.81
2023-09-17T16:48:10.923Z,66.69
2023-09-17T16:50:37.564Z,66.93
2023-09-17T16:53:04.654Z,66.59
2023-09-17T16:55:31.317Z,66.68
2023-09-17T16:57:57.978Z,66.91
2023-09-17T17:00:26.028Z,66.72
2023-09-17T17:02:53.037Z,66.73
2023-09-17T17:05:20.027Z,66.81
2023-09-17T17:07:47.034Z,66.63
2023-09-17T17:10:14.460Z,66.69
2023-09-17T17:12:41.174Z,66.76
2023-09-17T17:15:11.425Z,66.73
2023-09-17T17:17:39.635Z,66.22
2023-09-17T17:20:07.955Z,66.71
2023-09-17T17:22:42.785Z,66.47
2023-09-17T17:25:09.805Z,66.35
2023-09-17T17:27:36.482Z,66.21
2023-09-17T17:30:03.793Z,66.38
2023-09-17T17:32:31.013Z,66.30
2023-09-17T17:34:59.529Z,66.25
2023-09-17T17:37:26.250Z,66.18
2023-09-17T17:39:52.953Z,66.39
2023-09-17T17:42:19.566Z,66.06
2023-09-17T17:44:46.184Z,66.33
2023-09-17T17:47:12.872Z,66.17
2023-09-17T17:49:39.485Z,65.95
2023-09-17T17:52:07.568Z,66.20
2023-09-17T17:54:34.203Z,66.22
2023-09-17T17:57:02.615Z,66.08
2023-09-17T17:59:29.264Z,66.17
2023-09-17T18:01:56.426Z,65.98
2023-09-17T18:04:23.098Z,66.06
2023-09-17T18:06:49.834Z,65.93
2023-09-17T18:09:17.786Z,66.12
2023-09-17T18:11:44.415Z,65.88
2023-09-17T18:14:11.221Z,61.50
2023-09-17T18:16:37.910Z,66.01
2023-09-17T18:19:04.624Z,66.05
2023-09-17T18:21:31.262Z,66.06
2023-09-17T18:23:57.927Z,65.78
2023-09-17T18:26:26.382Z,65.51
2023-09-17T18:28:53.145Z,65.66
2023-09-17T18:31:20.017Z,65.76
2023-09-17T18:33:46.770Z,68.24
2023-09-17T18:36:13.457Z,66.51
2023-09-17T18:38:40.828Z,65.85
2023-09-17T18:41:07.506Z,70.18
2023-09-17T18:43:35.557Z,74.53
2023-09-17T18:46:04.430Z,68.64
2023-09-17T18:48:31.076Z,66.86
2023-09-17T18:50:57.920Z,66.22
2023-09-17T18:53:24.592Z,66.51
2023-09-17T18:55:51.298Z,63.31
2023-09-17T18:58:17.972Z,66.11
2023-09-17T19:00:46.122Z,65.78
2023-09-17T19:03:12.849Z,68.61
2023-09-17T19:05:41.586Z,66.52
2023-09-17T19:08:08.445Z,71.85
2023-09-17T19:10:35.298Z,67.53
2023-09-17T19:13:01.963Z,72.29
2023-09-17T19:15:28.610Z,73.49
2023-09-17T19:17:56.707Z,67.47
2023-09-17T19:20:23.438Z,67.31
2023-09-17T19:22:50.129Z,67.82
2023-09-17T19:25:17.030Z,66.80
2023-09-17T19:27:44.598Z,65.59
2023-09-17T19:30:12.785Z,66.27
2023-09-17T19:32:39.706Z,66.51
2023-09-17T19:35:08.533Z,73.59
2023-09-17T19:37:35.168Z,65.48
2023-09-17T19:40:01.910Z,67.54
2023-09-17T19:42:29.078Z,69.24
2023-09-17T19:44:55.765Z,69.17
2023-09-17T19:47:22.527Z,66.69
2023-09-17T19:49:49.456Z,66.56
2023-09-17T19:52:17.521Z,63.02
2023-09-17T19:54:44.960Z,71.13
2023-09-17T19:57:11.772Z,67.77
2023-09-17T19:59:38.547Z,66.59
2023-09-17T20:02:05.272Z,66.31
2023-09-17T20:04:32.525Z,66.58
2023-09-17T20:07:01.050Z,66.02
2023-09-17T20:09:29.136Z,62.92
2023-09-17T20:11:56.444Z,69.10
2023-09-17T20:14:23.481Z,66.69
2023-09-17T20:16:50.221Z,62.87
2023-09-17T20:19:16.974Z,62.18
2023-09-17T20:21:43.857Z,66.72
2023-09-17T20:24:10.955Z,66.04
2023-09-17T20:26:38.979Z,65.81
2023-09-17T20:29:05.898Z,68.48
2023-09-17T20:31:32.930Z,67.67
2023-09-17T20:34:00.733Z,66.37
2023-09-17T20:36:27.447Z,63.29
2023-09-17T20:38:54.316Z,74.63
2023-09-17T20:41:21.317Z,70.93
2023-09-17T20:46:15.809Z,66.35
2023-09-17T20:48:42.577Z,74.75
2023-09-17T20:51:09.258Z,67.87
2023-09-17T20:53:35.906Z,66.65
2023-09-17T20:56:04.429Z,63.54
2023-09-17T20:58:31.094Z,68.99
2023-09-17T21:00:59.231Z,66.51
2023-09-17T21:03:26.022Z,67.68
2023-09-17T21:05:52.658Z,66.38
2023-09-17T21:08:19.398Z,60.68
2023-09-17T21:10:46.160Z,68.42
2023-09-17T21:13:15.106Z,66.39
2023-09-17T21:15:41.796Z,68.69
2023-09-17T21:18:10.646Z,68.06
2023-09-17T21:20:37.451Z,66.23
2023-09-17T21:23:04.448Z,68.00
2023-09-17T21:25:31.187Z,66.29
2023-09-17T21:30:24.266Z,66.06
2023-09-17T21:32:50.865Z,60.54
2023-09-17T21:35:18.987Z,69.06
2023-09-17T21:37:45.620Z,66.41
2023-09-17T21:40:13.018Z,66.32
2023-09-17T21:42:39.905Z,65.47
2023-09-17T21:45:07.474Z,65.87
2023-09-17T21:47:34.176Z,65.60
2023-09-17T21:50:01.632Z,69.52
2023-09-17T21:52:30.662Z,70.72
2023-09-17T21:54:58.056Z,66.73
2023-09-17T21:57:25.319Z,68.12
2023-09-17T21:59:52.185Z,66.64
2023-09-17T22:02:19.882Z,66.50
2023-09-17T22:04:46.630Z,64.79
2023-09-17T22:07:13.276Z,67.32
2023-09-17T22:09:41.456Z,66.10
2023-09-17T22:12:08.699Z,69.31
2023-09-17T22:14:35.930Z,74.96
2023-09-17T22:17:05.748Z,78.28
2023-09-17T22:19:33.964Z,68.56
2023-09-17T22:22:00.640Z,61.43
2023-09-17T22:24:27.230Z,67.94
2023-09-17T22:26:56.363Z,66.44
2023-09-17T22:29:22.988Z,73.54
2023-09-17T22:31:49.687Z,68.57
2023-09-17T22:34:16.363Z,70.37
2023-09-17T22:36:42.984Z,71.38
2023-09-17T22:39:09.583Z,67.33
2023-09-17T22:41:36.220Z,62.72
2023-09-17T22:44:20.719Z,75.24
2023-09-17T22:46:49.889Z,75.24
2023-09-17T22:49:16.543Z,70.36
2023-09-17T22:51:43.167Z,67.19
2023-09-17T22:54:10.201Z,61.03
2023-09-17T22:56:36.960Z,66.33
2023-09-17T22:59:05.154Z,73.59
2023-09-17T23:01:33.809Z,68.61
2023-09-17T23:04:00.441Z,67.49
2023-09-17T23:06:27.763Z,61.61
2023-09-17T23:08:55.459Z,66.70
2023-09-17T23:11:22.638Z,65.90
2023-09-17T23:13:49.327Z,66.02
2023-09-17T23:16:18.074Z,59.78
2023-09-17T23:18:44.816Z,64.82
2023-09-17T23:21:16.158Z,71.76
2023-09-17T23:23:46.149Z,67.27
2023-09-17T23:26:13.899Z,60.54
2023-09-17T23:28:40.986Z,67.19
2023-09-17T23:31:09.674Z,66.89
2023-09-17T23:33:37.752Z,60.97
2023-09-17T23:36:05.130Z,68.24
2023-09-17T23:38:32.467Z,69.54
2023-09-17T23:40:59.207Z,75.26
2023-09-17T23:43:26.038Z,67.48
2023-09-17T23:45:52.915Z,61.63
2023-09-17T23:48:19.708Z,66.98
2023-09-17T23:50:51.264Z,65.82
2023-09-17T23:53:17.978Z,65.07
2023-09-17T23:55:47.597Z,73.81
2023-09-17T23:58:14.912Z,70.44
